createdAt,value
2018-05-11T00:00:29.498Z,21.79
2018-05-11T00:03:01.076Z,21.72
2018-05-11T00:05:34.780Z,21.74
2018-05-11T00:08:07.233Z,21.33
2018-05-11T00:10:48.946Z,21.24
2018-05-11T00:13:22.857Z,21.28
2018-05-11T00:16:02.991Z,21.19
2018-05-11T00:18:39.651Z,21.33
2018-05-11T00:21:12.447Z,21.23
2018-05-11T00:23:48.479Z,21.23
2018-05-11T00:26:23.080Z,21.20
2018-05-11T00:28:54.885Z,20.98
2018-05-11T00:31:25.584Z,20.93
2018-05-11T00:33:54.579Z,20.87
2018-05-11T00:36:24.239Z,20.92
2018-05-11T00:38:53.800Z,21.13
2018-05-11T00:41:22.781Z,20.99
2018-05-11T00:43:51.588Z,21.03
2018-05-11T00:46:20.758Z,20.87
2018-05-11T00:48:49.783Z,20.91
2018-05-11T00:51:19.516Z,21.08
2018-05-11T00:53:49.121Z,21.01
2018-05-11T00:56:18.012Z,20.90
2018-05-11T00:58:46.826Z,21.00
2018-05-11T01:01:16.048Z,21.14
2018-05-11T01:03:44.790Z,21.10
2018-05-11T01:06:13.631Z,20.98
2018-05-11T01:08:42.609Z,21.10
2018-05-11T01:11:12.113Z,21.42
2018-05-11T01:13:42.063Z,21.30
2018-05-11T01:16:10.922Z,21.17
2018-05-11T01:18:39.682Z,21.20
2018-05-11T01:21:09.237Z,21.32
2018-05-11T01:23:37.993Z,21.55
2018-05-11T01:26:06.783Z,21.65
2018-05-11T01:28:35.537Z,21.47
2018-05-11T01:31:04.584Z,21.64
2018-05-11T01:33:33.438Z,21.53
2018-05-11T01:36:02.213Z,21.31
2018-05-11T01:38:30.994Z,21.06
2018-05-11T01:40:59.727Z,21.12
2018-05-11T01:43:28.643Z,21.30
2018-05-11T01:45:59.448Z,21.22
2018-05-11T01:48:28.273Z,21.02
2018-05-11T01:50:58.650Z,20.78
2018-05-11T01:53:28.389Z,20.70
2018-05-11T01:55:58.988Z,20.88
2018-05-11T01:58:28.392Z,21.03
2018-05-11T02:01:00.178Z,21.15
2018-05-11T02:03:36.047Z,20.85
2018-05-11T02:06:11.689Z,20.90
2018-05-11T02:08:48.724Z,20.98
2018-05-11T02:11:21.527Z,21.18
2018-05-11T02:13:56.970Z,21.43
2018-05-11T02:16:31.898Z,21.32
2018-05-11T02:19:06.392Z,21.16
2018-05-11T02:21:39.042Z,21.17
2018-05-11T02:24:11.581Z,20.78
2018-05-11T02:26:46.876Z,20.39
2018-05-11T02:29:21.252Z,20.66
2018-05-11T02:31:55.138Z,20.74
2018-05-11T02:34:32.677Z,20.47
2018-05-11T02:37:09.416Z,20.34
2018-05-11T02:39:41.795Z,20.41
2018-05-11T02:42:16.839Z,20.18
2018-05-11T02:44:51.688Z,20.30
2018-05-11T02:47:25.271Z,20.51
2018-05-11T02:50:02.301Z,20.63
2018-05-11T02:52:33.246Z,20.54
2018-05-11T02:55:04.188Z,20.68
2018-05-11T02:57:38.445Z,20.95
2018-05-11T03:00:14.020Z,21.37
2018-05-11T03:02:47.928Z,21.46
2018-05-11T03:05:22.001Z,21.46
2018-05-11T03:07:53.725Z,21.46
2018-05-11T03:10:27.093Z,21.29
2018-05-11T03:13:01.489Z,20.80
2018-05-11T03:15:36.361Z,20.86
2018-05-11T03:18:10.439Z,20.72
2018-05-11T03:20:48.123Z,20.76
2018-05-11T03:23:17.295Z,20.71
2018-05-11T03:25:46.065Z,20.76
2018-05-11T03:28:14.843Z,20.70
2018-05-11T03:30:44.401Z,20.63
2018-05-11T03:33:13.147Z,20.93
2018-05-11T03:35:41.934Z,20.87
2018-05-11T03:38:10.698Z,20.56
2018-05-11T03:40:39.605Z,20.62
2018-05-11T03:43:08.406Z,20.66
2018-05-11T03:45:37.145Z,20.70
2018-05-11T03:48:06.691Z,20.88
2018-05-11T03:50:35.513Z,20.98
2018-05-11T03:53:04.271Z,21.02
2018-05-11T03:55:33.095Z,20.93
2018-05-11T03:58:01.865Z,20.96
2018-05-11T04:00:30.620Z,20.98
2018-05-11T04:03:11.878Z,21.07
2018-05-11T04:05:53.188Z,20.88
2018-05-11T04:08:33.585Z,20.80
2018-05-11T04:11:02.309Z,20.92
2018-05-11T04:13:31.828Z,21.03
2018-05-11T04:16:00.619Z,21.02
2018-05-11T04:18:31.034Z,20.79
2018-05-11T04:21:00.392Z,21.00
2018-05-11T04:23:30.272Z,21.26
2018-05-11T04:25:59.039Z,21.13
2018-05-11T04:28:27.836Z,21.12
2018-05-11T04:30:57.354Z,21.16
2018-05-11T04:33:26.902Z,21.13
2018-05-11T04:35:55.683Z,21.14
2018-05-11T04:38:24.431Z,21.03
2018-05-11T04:40:53.946Z,20.97
2018-05-11T04:43:22.683Z,21.07
2018-05-11T04:45:51.432Z,21.18
2018-05-11T04:48:20.171Z,21.21
2018-05-11T04:50:48.932Z,21.21
2018-05-11T04:53:17.659Z,21.17
2018-05-11T04:55:47.161Z,21.15
2018-05-11T04:58:15.958Z,21.18
2018-05-11T05:00:44.721Z,21.15
2018-05-11T05:03:13.474Z,21.18
2018-05-11T05:05:42.261Z,21.26
2018-05-11T05:08:11.265Z,21.34
2018-05-11T05:10:40.021Z,21.36
2018-05-11T05:13:08.785Z,21.47
2018-05-11T05:15:38.322Z,21.52
2018-05-11T05:18:07.071Z,21.28
2018-05-11T05:20:35.872Z,20.78
2018-05-11T05:23:04.629Z,20.72
2018-05-11T05:25:33.419Z,20.89
2018-05-11T05:28:02.603Z,21.12
2018-05-11T05:30:31.394Z,21.06
2018-05-11T05:33:01.165Z,21.15
2018-05-11T05:35:30.924Z,21.28
2018-05-11T05:37:59.653Z,21.51
2018-05-11T05:40:29.182Z,21.43
2018-05-11T05:42:57.925Z,21.60
2018-05-11T05:45:26.669Z,21.86
2018-05-11T05:47:55.849Z,21.93
2018-05-11T05:50:24.650Z,22.10
2018-05-11T05:52:53.435Z,22.05
2018-05-11T05:55:22.201Z,22.15
2018-05-11T05:57:51.756Z,22.07
2018-05-11T06:00:20.510Z,21.96
2018-05-11T06:02:49.266Z,22.02
2018-05-11T06:05:18.075Z,22.15
2018-05-11T06:07:46.848Z,22.24
2018-05-11T06:10:15.885Z,22.49
2018-05-11T06:12:44.692Z,22.35
2018-05-11T06:15:13.448Z,22.37
2018-05-11T06:17:42.175Z,22.31
2018-05-11T06:20:10.941Z,22.53
2018-05-11T06:22:39.727Z,22.27
2018-05-11T06:25:08.529Z,22.40
2018-05-11T06:27:37.336Z,22.20
2018-05-11T06:30:06.130Z,22.14
2018-05-11T06:32:35.704Z,22.52
2018-05-11T06:35:07.152Z,22.15
2018-05-11T06:37:35.901Z,22.34
2018-05-11T06:40:04.965Z,22.31
2018-05-11T06:42:33.737Z,22.42
2018-05-11T06:45:02.494Z,22.52
2018-05-11T06:47:31.469Z,22.59
2018-05-11T06:50:02.139Z,22.78
2018-05-11T06:52:31.472Z,22.92
2018-05-11T06:55:01.414Z,22.62
2018-05-11T06:57:30.192Z,22.44
2018-05-11T06:59:59.007Z,22.74
2018-05-11T07:02:27.741Z,22.53
2018-05-11T07:04:56.497Z,22.61
2018-05-11T07:07:26.077Z,22.62
2018-05-11T07:09:54.788Z,22.57
2018-05-11T07:12:23.575Z,22.39
2018-05-11T07:14:52.370Z,22.60
2018-05-11T07:17:21.134Z,22.66
2018-05-11T07:19:49.898Z,22.72
2018-05-11T07:22:18.643Z,22.82
2018-05-11T07:24:47.427Z,23.04
2018-05-11T07:27:16.227Z,23.23
2018-05-11T07:29:44.985Z,23.30
2018-05-11T07:32:13.875Z,23.92
2018-05-11T07:34:42.602Z,23.80
2018-05-11T07:37:11.358Z,23.97
2018-05-11T07:39:40.107Z,23.85
2018-05-11T07:42:08.950Z,23.77
2018-05-11T07:44:37.690Z,23.88
2018-05-11T07:47:06.508Z,24.05
2018-05-11T07:49:35.273Z,24.30
2018-05-11T07:52:04.638Z,24.22
2018-05-11T07:54:33.444Z,24.48
2018-05-11T07:57:02.185Z,24.40
2018-05-11T07:59:31.888Z,24.96
2018-05-11T08:02:00.664Z,24.87
2018-05-11T08:04:29.423Z,24.83
2018-05-11T08:06:58.214Z,25.04
2018-05-11T08:09:28.114Z,24.96
2018-05-11T08:11:56.844Z,25.07
2018-05-11T08:14:25.796Z,25.30
2018-05-11T08:16:54.347Z,25.28
2018-05-11T08:19:23.867Z,25.33
2018-05-11T08:21:52.635Z,25.22
2018-05-11T08:24:21.365Z,24.54
2018-05-11T08:26:50.276Z,24.58
2018-05-11T08:29:18.933Z,24.72
2018-05-11T08:31:47.668Z,24.98
2018-05-11T08:34:16.478Z,24.97
2018-05-11T08:36:45.284Z,24.71
2018-05-11T08:39:14.153Z,24.68
2018-05-11T08:41:42.961Z,25.00
2018-05-11T08:44:11.730Z,25.06
2018-05-11T08:46:40.501Z,25.13
2018-05-11T08:49:09.247Z,25.28
2018-05-11T08:51:38.097Z,25.04
2018-05-11T08:54:06.852Z,25.21
2018-05-11T08:56:35.697Z,25.16
2018-05-11T08:59:04.520Z,25.03
2018-05-11T09:01:33.234Z,24.90
2018-05-11T09:04:02.301Z,25.49
2018-05-11T09:06:32.138Z,25.57
2018-05-11T09:09:00.922Z,25.49
2018-05-11T09:11:29.777Z,25.72
2018-05-11T09:13:58.516Z,26.05
2018-05-11T09:16:27.305Z,26.12
2018-05-11T09:18:56.194Z,26.30
2018-05-11T09:21:25.033Z,26.29
2018-05-11T09:23:54.769Z,26.17
2018-05-11T09:26:23.580Z,25.90
2018-05-11T09:28:52.489Z,25.88
2018-05-11T09:31:21.299Z,25.78
2018-05-11T09:33:50.065Z,25.63
2018-05-11T09:36:18.868Z,25.87
2018-05-11T09:38:48.408Z,26.35
2018-05-11T09:41:17.242Z,26.60
2018-05-11T09:43:46.012Z,26.59
2018-05-11T09:46:14.778Z,26.44
2018-05-11T09:48:45.376Z,26.06
2018-05-11T09:51:14.200Z,26.06
2018-05-11T09:53:43.017Z,26.19
2018-05-11T09:56:11.809Z,26.06
2018-05-11T10:01:03.110Z,25.89
2018-05-11T10:03:32.735Z,25.77
2018-05-11T10:06:02.126Z,26.23
2018-05-11T10:08:30.851Z,26.67
2018-05-11T10:10:59.680Z,26.23
2018-05-11T10:13:28.482Z,26.42
2018-05-11T10:15:57.197Z,26.57
2018-05-11T10:18:26.028Z,26.26
2018-05-11T10:20:55.139Z,26.49
2018-05-11T10:23:24.530Z,26.51
2018-05-11T10:25:54.252Z,26.50
2018-05-11T10:28:23.316Z,26.50
2018-05-11T10:30:53.540Z,26.43
2018-05-11T10:33:22.313Z,26.31
2018-05-11T10:35:51.056Z,26.36
2018-05-11T10:38:21.790Z,26.05
2018-05-11T10:40:53.071Z,25.87
2018-05-11T10:43:21.855Z,26.56
2018-05-11T10:45:51.125Z,26.68
2018-05-11T10:48:19.876Z,26.62
2018-05-11T10:50:48.628Z,26.53
2018-05-11T10:53:17.378Z,27.14
2018-05-11T10:55:46.133Z,27.38
2018-05-11T10:58:14.905Z,27.00
2018-05-11T11:00:43.719Z,27.09
2018-05-11T11:03:17.238Z,26.67
2018-05-11T11:05:46.025Z,26.51
2018-05-11T11:08:14.787Z,26.75
2018-05-11T11:10:43.589Z,26.43
2018-05-11T11:13:12.361Z,26.17
2018-05-11T11:15:41.194Z,26.47
2018-05-11T11:18:10.069Z,26.75
2018-05-11T11:20:38.821Z,26.12
2018-05-11T11:23:07.579Z,25.80
2018-05-11T11:25:36.381Z,25.47
2018-05-11T11:28:05.660Z,25.70
2018-05-11T11:30:35.207Z,25.58
2018-05-11T11:33:03.977Z,25.04
2018-05-11T11:35:33.529Z,25.19
2018-05-11T11:38:02.301Z,25.43
2018-05-11T11:40:31.147Z,25.29
2018-05-11T11:42:59.836Z,25.00
2018-05-11T11:45:28.584Z,24.97
2018-05-11T11:47:57.370Z,25.69
2018-05-11T11:50:26.100Z,26.22
2018-05-11T11:52:55.628Z,26.46
2018-05-11T11:55:24.436Z,26.34
2018-05-11T11:57:53.219Z,25.87
2018-05-11T12:00:22.751Z,25.88
2018-05-11T12:02:51.543Z,26.53
2018-05-11T12:05:20.337Z,26.52
2018-05-11T12:07:49.095Z,26.46
2018-05-11T12:10:17.902Z,26.23
2018-05-11T12:12:46.671Z,26.54
2018-05-11T12:15:16.167Z,26.31
2018-05-11T12:17:45.804Z,26.94
2018-05-11T12:20:14.941Z,27.79
2018-05-11T12:22:43.664Z,28.19
2018-05-11T12:25:12.473Z,27.15
2018-05-11T12:27:41.869Z,26.95
2018-05-11T12:30:11.001Z,26.85
2018-05-11T12:32:39.775Z,26.74
2018-05-11T12:35:08.502Z,26.55
2018-05-11T12:37:39.183Z,27.37
2018-05-11T12:40:07.962Z,27.37
2018-05-11T12:42:36.765Z,28.06
2018-05-11T12:45:06.634Z,28.72
2018-05-11T12:47:35.476Z,29.36
2018-05-11T12:50:04.528Z,29.01
2018-05-11T12:52:33.810Z,27.57
2018-05-11T12:55:03.220Z,26.61
2018-05-11T12:57:32.026Z,26.96
2018-05-11T13:00:01.567Z,27.19
2018-05-11T13:02:32.021Z,27.36
2018-05-11T13:05:00.934Z,26.31
2018-05-11T13:07:31.308Z,26.10
2018-05-11T13:10:00.763Z,26.87
2018-05-11T13:12:29.602Z,27.84
2018-05-11T13:14:58.510Z,27.68
2018-05-11T13:17:31.825Z,27.66
2018-05-11T13:20:01.198Z,27.65
2018-05-11T13:22:30.355Z,27.27
2018-05-11T13:24:59.206Z,27.24
2018-05-11T13:27:28.037Z,27.06
2018-05-11T13:29:56.916Z,27.02
2018-05-11T13:32:26.307Z,27.72
2018-05-11T13:34:55.511Z,28.54
2018-05-11T13:37:24.720Z,27.77
2018-05-11T13:39:54.273Z,28.09
2018-05-11T13:42:23.400Z,28.39
2018-05-11T13:44:53.002Z,28.17
2018-05-11T13:47:21.789Z,27.57
2018-05-11T13:49:50.754Z,26.95
2018-05-11T13:52:19.598Z,27.10
2018-05-11T13:54:48.408Z,27.64
2018-05-11T13:57:17.234Z,27.48
2018-05-11T13:59:46.042Z,27.74
2018-05-11T14:02:14.816Z,27.23
2018-05-11T14:04:43.676Z,26.79
2018-05-11T14:07:12.867Z,26.34
2018-05-11T14:09:41.620Z,26.30
2018-05-11T14:12:10.411Z,26.40
2018-05-11T14:14:39.258Z,26.57
2018-05-11T14:17:08.014Z,26.63
2018-05-11T14:19:37.434Z,26.53
2018-05-11T14:22:06.215Z,26.49
2018-05-11T14:24:35.730Z,26.62
2018-05-11T14:27:04.556Z,26.86
2018-05-11T14:29:33.389Z,26.98
2018-05-11T14:32:02.288Z,26.60
2018-05-11T14:34:31.074Z,26.37
2018-05-11T14:37:00.639Z,26.69
2018-05-11T14:39:29.432Z,26.76
2018-05-11T14:41:58.248Z,27.20
2018-05-11T14:44:27.050Z,27.12
2018-05-11T14:46:57.742Z,27.16
2018-05-11T14:49:27.693Z,27.38
2018-05-11T14:51:58.847Z,27.82
2018-05-11T14:54:27.826Z,27.85
2018-05-11T14:56:56.657Z,27.27
2018-05-11T14:59:25.445Z,27.47
2018-05-11T15:01:54.255Z,27.45
2018-05-11T15:04:23.792Z,26.41
2018-05-11T15:06:52.654Z,26.48
2018-05-11T15:09:21.914Z,26.70
2018-05-11T15:11:53.020Z,27.23
2018-05-11T15:14:21.868Z,26.79
2018-05-11T15:16:50.620Z,26.51
2018-05-11T15:19:20.169Z,26.73
2018-05-11T15:21:49.064Z,26.50
2018-05-11T15:24:18.182Z,26.36
2018-05-11T15:26:47.738Z,26.33
2018-05-11T15:29:16.574Z,26.32
2018-05-11T15:31:45.578Z,25.90
2018-05-11T15:34:14.661Z,25.15
2018-05-11T15:36:43.523Z,25.03
2018-05-11T15:39:12.352Z,24.89
2018-05-11T15:41:41.110Z,25.01
2018-05-11T15:44:10.748Z,25.48
2018-05-11T15:46:39.774Z,25.25
2018-05-11T15:49:09.527Z,25.18
2018-05-11T15:51:38.413Z,25.45
2018-05-11T15:54:07.987Z,25.61
2018-05-11T15:56:36.907Z,26.05
2018-05-11T15:59:05.879Z,26.58
2018-05-11T16:01:36.756Z,26.66
2018-05-11T16:04:05.578Z,26.44
2018-05-11T16:06:34.628Z,26.51
2018-05-11T16:09:05.462Z,26.46
2018-05-11T16:11:34.871Z,26.57
2018-05-11T16:14:03.644Z,26.38
2018-05-11T16:16:33.694Z,26.84
2018-05-11T16:19:02.601Z,27.16
2018-05-11T16:21:31.993Z,27.62
2018-05-11T16:24:01.813Z,27.94
2018-05-11T16:26:30.889Z,27.85
2018-05-11T16:28:59.664Z,27.55
2018-05-11T16:31:28.533Z,26.94
2018-05-11T16:33:57.289Z,26.47
2018-05-11T16:36:27.064Z,26.37
2018-05-11T16:38:57.050Z,26.09
2018-05-11T16:41:26.117Z,26.19
2018-05-11T16:43:54.983Z,26.67
2018-05-11T16:46:23.855Z,27.05
2018-05-11T16:48:52.656Z,26.64
2018-05-11T16:51:22.357Z,25.93
2018-05-11T16:53:51.346Z,25.93
2018-05-11T16:56:21.139Z,25.82
2018-05-11T16:58:49.989Z,25.88
2018-05-11T17:01:19.246Z,25.96
2018-05-11T17:03:49.618Z,26.01
2018-05-11T17:06:19.815Z,26.18
2018-05-11T17:08:49.603Z,25.93
2018-05-11T17:11:18.444Z,25.81
2018-05-11T17:13:47.362Z,25.63
2018-05-11T17:16:16.885Z,25.74
2018-05-11T17:18:45.720Z,25.67
2018-05-11T17:21:14.496Z,25.60
2018-05-11T17:23:43.297Z,25.45
2018-05-11T17:26:12.160Z,25.56
2018-05-11T17:28:40.986Z,25.39
2018-05-11T17:31:09.835Z,25.39
2018-05-11T17:33:38.817Z,25.28
2018-05-11T17:36:07.576Z,25.33
2018-05-11T17:38:37.230Z,25.47
2018-05-11T17:41:06.443Z,25.47
2018-05-11T17:43:37.258Z,25.38
2018-05-11T17:46:07.406Z,25.31
2018-05-11T17:48:36.678Z,25.12
2018-05-11T17:51:05.994Z,25.15
2018-05-11T17:53:34.771Z,25.28
2018-05-11T17:56:04.338Z,25.31
2018-05-11T17:58:33.156Z,25.21
2018-05-11T18:01:03.108Z,25.07
2018-05-11T18:03:31.879Z,24.98
2018-05-11T18:06:02.832Z,24.98
2018-05-11T18:08:34.284Z,25.01
2018-05-11T18:11:04.057Z,25.18
2018-05-11T18:13:32.948Z,24.94
2018-05-11T18:16:02.357Z,24.85
2018-05-11T18:18:31.163Z,24.77
2018-05-11T18:20:59.956Z,24.74
2018-05-11T18:23:28.895Z,24.66
2018-05-11T18:25:57.746Z,24.61
2018-05-11T18:28:29.815Z,24.63
2018-05-11T18:30:59.435Z,24.52
2018-05-11T18:33:29.445Z,24.45
2018-05-11T18:35:58.197Z,24.40
2018-05-11T18:38:27.063Z,24.28
2018-05-11T18:40:55.944Z,24.21
2018-05-11T18:43:24.747Z,24.16
2018-05-11T18:45:53.583Z,24.11
2018-05-11T18:48:22.385Z,24.08
2018-05-11T18:50:55.094Z,23.98
2018-05-11T18:53:24.160Z,23.78
2018-05-11T18:55:52.779Z,23.61
2018-05-11T18:58:21.712Z,23.59
2018-05-11T19:00:51.528Z,23.48
2018-05-11T19:03:25.263Z,23.45
2018-05-11T19:05:54.890Z,23.47
2018-05-11T19:08:23.683Z,23.47
2018-05-11T19:10:56.610Z,23.36
2018-05-11T19:13:29.831Z,23.27
2018-05-11T19:15:59.505Z,23.17
2018-05-11T19:18:28.235Z,23.10
2018-05-11T19:21:08.665Z,23.00
2018-05-11T19:23:37.415Z,22.96
2018-05-11T19:26:06.288Z,22.96
2018-05-11T19:28:35.041Z,22.88
2018-05-11T19:31:07.293Z,22.81
2018-05-11T19:33:36.125Z,22.75
2018-05-11T19:36:05.783Z,22.56
2018-05-11T19:38:34.618Z,22.51
2018-05-11T19:41:03.444Z,22.47
2018-05-11T19:43:32.319Z,22.35
2018-05-11T19:46:01.904Z,22.29
2018-05-11T19:48:31.484Z,22.29
2018-05-11T19:51:00.380Z,22.22
2018-05-11T19:53:29.315Z,22.11
2018-05-11T19:55:58.418Z,22.02
2018-05-11T19:58:27.425Z,21.91
2018-05-11T20:00:56.877Z,21.92
2018-05-11T20:03:26.484Z,22.07
2018-05-11T20:05:55.315Z,22.00
2018-05-11T20:08:24.161Z,21.66
2018-05-11T20:10:53.014Z,21.78
2018-05-11T20:13:21.804Z,21.87
2018-05-11T20:15:50.609Z,21.87
2018-05-11T20:18:19.392Z,21.64
2018-05-11T20:20:48.124Z,21.57
2018-05-11T20:23:17.713Z,21.47
2018-05-11T20:25:46.442Z,21.52
2018-05-11T20:28:15.269Z,21.62
2018-05-11T20:30:44.015Z,21.44
2018-05-11T20:33:12.908Z,21.44
2018-05-11T20:35:41.659Z,21.46
2018-05-11T20:38:10.533Z,21.52
2018-05-11T20:40:40.433Z,21.45
2018-05-11T20:43:10.363Z,21.37
2018-05-11T20:45:39.164Z,21.29
2018-05-11T20:48:07.983Z,21.23
2018-05-11T20:50:36.853Z,21.22
2018-05-11T20:53:05.597Z,21.09
2018-05-11T20:55:34.703Z,21.11
2018-05-11T20:58:03.495Z,20.84
2018-05-11T21:00:32.238Z,20.78
2018-05-11T21:03:01.754Z,20.89
2018-05-11T21:05:30.566Z,20.84
2018-05-11T21:07:59.298Z,20.76
2018-05-11T21:10:28.090Z,20.92
2018-05-11T21:12:56.930Z,20.84
2018-05-11T21:15:25.655Z,20.85
2018-05-11T21:17:54.432Z,20.83
2018-05-11T21:20:23.199Z,20.73
2018-05-11T21:22:51.935Z,20.73
2018-05-11T21:25:21.181Z,20.91
2018-05-11T21:27:50.061Z,20.88
2018-05-11T21:30:18.799Z,20.78
2018-05-11T21:32:47.565Z,20.76
2018-05-11T21:35:16.501Z,20.66
2018-05-11T21:37:45.245Z,20.39
2018-05-11T21:40:14.017Z,20.06
2018-05-11T21:42:42.978Z,19.97
2018-05-11T21:45:11.851Z,19.92
2018-05-11T21:47:41.089Z,20.11
2018-05-11T21:50:10.964Z,20.17
2018-05-11T21:52:39.722Z,19.98
2018-05-11T21:55:09.277Z,19.93
2018-05-11T21:57:38.427Z,19.80
2018-05-11T22:00:07.201Z,19.55
2018-05-11T22:02:35.986Z,19.46
2018-05-11T22:05:04.780Z,19.85
2018-05-11T22:07:33.513Z,19.90
2018-05-11T22:10:02.288Z,19.94
2018-05-11T22:12:31.059Z,19.98
2018-05-11T22:14:59.806Z,20.08
2018-05-11T22:17:29.332Z,20.11
2018-05-11T22:19:58.123Z,20.06
2018-05-11T22:22:26.849Z,19.75
2018-05-11T22:24:55.670Z,19.89
2018-05-11T22:27:25.198Z,19.93
2018-05-11T22:29:54.031Z,19.96
2018-05-11T22:32:22.797Z,19.88
2018-05-11T22:34:51.596Z,19.73
2018-05-11T22:37:20.396Z,19.83
2018-05-11T22:39:49.206Z,19.74
2018-05-11T22:42:18.094Z,19.72
2018-05-11T22:44:46.862Z,19.80
2018-05-11T22:47:15.689Z,19.64
2018-05-11T22:49:44.477Z,19.31
2018-05-11T22:52:13.316Z,19.15
2018-05-11T22:54:42.113Z,19.28
2018-05-11T22:57:11.789Z,19.45
2018-05-11T22:59:42.368Z,19.62
2018-05-11T23:02:11.728Z,19.66
2018-05-11T23:04:41.590Z,19.61
2018-05-11T23:07:10.346Z,19.60
2018-05-11T23:09:39.190Z,19.49
2018-05-11T23:12:08.725Z,19.07
2018-05-11T23:14:37.518Z,18.80
2018-05-11T23:17:06.338Z,18.91
2018-05-11T23:19:35.134Z,18.96
2018-05-11T23:22:03.934Z,19.07
2018-05-11T23:24:32.690Z,19.14
2018-05-11T23:27:01.504Z,19.23
2018-05-11T23:29:30.257Z,19.04
2018-05-11T23:31:59.746Z,18.95
2018-05-11T23:34:28.532Z,19.13
2018-05-11T23:36:58.115Z,18.98
2018-05-11T23:39:27.854Z,19.05
2018-05-11T23:41:56.627Z,18.99
2018-05-11T23:44:25.426Z,19.11
2018-05-11T23:46:54.190Z,18.91
2018-05-11T23:49:23.109Z,18.72
2018-05-11T23:51:51.841Z,18.56
2018-05-11T23:54:20.600Z,18.66
2018-05-11T23:56:49.386Z,18.87
2018-05-11T23:59:19.017Z,18.84
